createdAt,value
2023-04-16T00:00:56.268Z,65.20
2023-04-16T00:03:25.626Z,70.72
2023-04-16T00:05:55.788Z,66.85
2023-04-16T00:08:25.399Z,69.22
2023-04-16T00:10:54.004Z,82.63
2023-04-16T00:13:22.561Z,69.22
2023-04-16T00:15:50.355Z,72.60
2023-04-16T00:18:18.248Z,80.20
2023-04-16T00:20:47.464Z,75.25
2023-04-16T00:23:15.340Z,75.63
2023-04-16T00:25:43.631Z,74.75
2023-04-16T00:28:11.436Z,66.20
2023-04-16T00:30:40.075Z,64.55
2023-04-16T00:33:07.898Z,61.15
2023-04-16T00:35:35.959Z,70.82
2023-04-16T00:38:05.551Z,77.25
2023-04-16T00:40:33.374Z,56.95
2023-04-16T00:43:01.352Z,61.80
2023-04-16T00:45:29.265Z,60.22
2023-04-16T00:48:00.610Z,68.13
2023-04-16T00:50:28.995Z,50.60
2023-04-16T00:52:58.120Z,67.35
2023-04-16T00:55:27.504Z,69.55
2023-04-16T00:57:55.703Z,70.80
2023-04-16T01:00:23.903Z,69.18
2023-04-16T01:02:51.903Z,62.20
2023-04-16T01:05:20.519Z,84.82
2023-04-16T01:07:48.629Z,85.18
2023-04-16T01:10:16.569Z,68.68
2023-04-16T01:12:45.907Z,71.85
2023-04-16T01:15:13.701Z,71.43
2023-04-16T01:17:42.441Z,71.53
2023-04-16T01:20:11.231Z,80.68
2023-04-16T01:22:40.536Z,77.00
2023-04-16T01:25:08.649Z,81.68
2023-04-16T01:27:37.670Z,81.78
2023-04-16T01:30:06.991Z,87.75
2023-04-16T01:32:46.467Z,86.38
2023-04-16T01:35:14.839Z,81.38
2023-04-16T01:37:45.059Z,84.32
2023-04-16T01:40:13.562Z,79.78
2023-04-16T01:42:41.660Z,83.88
2023-04-16T01:45:11.720Z,79.38
2023-04-16T01:47:41.801Z,79.53
2023-04-16T01:50:11.817Z,69.88
2023-04-16T01:52:39.781Z,72.75
2023-04-16T01:55:10.524Z,79.75
2023-04-16T01:57:39.014Z,80.03
2023-04-16T02:00:09.886Z,86.90
2023-04-16T02:02:46.738Z,75.60
2023-04-16T02:05:20.106Z,79.75
2023-04-16T02:07:47.932Z,84.72
2023-04-16T02:10:17.147Z,82.57
2023-04-16T02:12:45.632Z,90.72
2023-04-16T02:15:15.828Z,65.47
2023-04-16T02:17:43.765Z,81.72
2023-04-16T02:20:12.725Z,92.72
2023-04-16T02:22:52.903Z,76.78
2023-04-16T02:25:24.427Z,79.30
2023-04-16T02:27:54.856Z,85.72
2023-04-16T02:30:34.915Z,83.30
2023-04-16T02:33:05.477Z,78.20
2023-04-16T02:35:33.579Z,78.47
2023-04-16T02:38:01.937Z,94.80
2023-04-16T02:40:31.802Z,90.32
2023-04-16T02:43:00.515Z,88.28
2023-04-16T02:45:28.724Z,76.32
2023-04-16T02:47:56.685Z,78.85
2023-04-16T02:50:24.456Z,74.65
2023-04-16T02:52:52.499Z,73.63
2023-04-16T02:55:20.280Z,70.22
2023-04-16T02:57:49.359Z,75.95
2023-04-16T03:00:17.335Z,81.53
2023-04-16T03:02:45.228Z,79.80
2023-04-16T03:05:13.295Z,75.82
2023-04-16T03:07:41.121Z,80.80
2023-04-16T03:10:10.186Z,78.10
2023-04-16T03:12:37.979Z,82.65
2023-04-16T03:15:10.488Z,70.72
2023-04-16T03:17:38.434Z,74.15
2023-04-16T03:20:08.008Z,88.32
2023-04-16T03:22:36.006Z,89.35
2023-04-16T03:25:04.112Z,87.68
2023-04-16T03:27:32.275Z,80.55
2023-04-16T03:30:00.017Z,94.38
2023-04-16T03:32:30.412Z,73.43
2023-04-16T03:34:58.562Z,84.85
2023-04-16T03:37:26.668Z,68.40
2023-04-16T03:39:54.530Z,75.50
2023-04-16T03:42:22.844Z,83.90
2023-04-16T03:44:50.977Z,77.25
2023-04-16T03:47:19.936Z,90.03
2023-04-16T03:49:50.965Z,75.07
2023-04-16T03:52:21.140Z,86.68
2023-04-16T03:54:48.941Z,76.63
2023-04-16T03:57:24.380Z,83.90
2023-04-16T03:59:54.062Z,97.60
2023-04-16T04:02:22.879Z,77.30
2023-04-16T04:04:52.284Z,73.10
2023-04-16T04:07:20.218Z,64.95
2023-04-16T04:09:48.267Z,91.18
2023-04-16T04:12:16.532Z,68.25
2023-04-16T04:14:45.188Z,64.68
2023-04-16T04:17:13.028Z,73.97
2023-04-16T04:19:47.121Z,73.80
2023-04-16T04:22:23.907Z,66.50
2023-04-16T04:24:53.715Z,67.65
2023-04-16T04:27:21.823Z,67.70
2023-04-16T04:29:49.777Z,73.53
2023-04-16T04:32:17.646Z,79.05
2023-04-16T04:34:46.472Z,81.05
2023-04-16T04:37:14.277Z,81.28
2023-04-16T04:39:43.574Z,67.20
2023-04-16T04:42:13.841Z,77.18
2023-04-16T04:44:41.793Z,82.22
2023-04-16T04:47:10.179Z,70.13
2023-04-16T04:49:38.226Z,82.65
2023-04-16T04:52:06.237Z,73.65
2023-04-16T04:54:34.283Z,72.35
2023-04-16T04:57:03.775Z,82.80
2023-04-16T04:59:31.730Z,83.88
2023-04-16T05:02:02.440Z,93.07
2023-04-16T05:04:30.301Z,71.32
2023-04-16T05:06:58.045Z,78.88
2023-04-16T05:09:25.861Z,95.25
2023-04-16T05:11:53.917Z,92.60
2023-04-16T05:14:23.100Z,84.05
2023-04-16T05:16:51.423Z,78.20
2023-04-16T05:19:19.225Z,72.72
2023-04-16T05:21:46.997Z,73.38
2023-04-16T05:24:15.057Z,49.85
2023-04-16T05:26:43.201Z,50.25
2023-04-16T05:29:11.128Z,48.45
2023-04-16T05:31:41.038Z,52.03
2023-04-16T05:34:08.783Z,49.92
2023-04-16T05:36:36.596Z,59.63
2023-04-16T05:39:05.219Z,54.17
2023-04-16T05:41:33.071Z,54.03
2023-04-16T05:44:00.840Z,66.85
2023-04-16T05:46:28.686Z,54.90
2023-04-16T05:48:58.043Z,53.50
2023-04-16T05:51:27.243Z,57.00
2023-04-16T05:53:55.064Z,51.60
2023-04-16T05:56:23.461Z,62.30
2023-04-16T05:58:51.282Z,82.97
2023-04-16T06:01:19.404Z,65.00
2023-04-16T06:03:47.478Z,78.57
2023-04-16T06:06:16.764Z,76.85
2023-04-16T06:08:44.640Z,88.07
2023-04-16T06:11:12.553Z,84.38
2023-04-16T06:13:40.354Z,66.70
2023-04-16T06:16:08.686Z,79.18
2023-04-16T06:18:36.748Z,56.78
2023-04-16T06:21:05.096Z,82.30
2023-04-16T06:23:34.293Z,72.50
2023-04-16T06:26:02.238Z,66.20
2023-04-16T06:28:30.129Z,58.38
2023-04-16T06:30:58.222Z,78.38
2023-04-16T06:33:26.308Z,70.35
2023-04-16T06:35:54.165Z,70.80
2023-04-16T06:38:22.295Z,58.95
2023-04-16T06:40:51.352Z,75.38
2023-04-16T06:43:19.255Z,75.05
2023-04-16T06:45:47.096Z,60.55
2023-04-16T06:48:14.992Z,70.05
2023-04-16T06:50:42.839Z,60.63
2023-04-16T06:53:10.656Z,56.05
2023-04-16T06:55:38.690Z,60.85
2023-04-16T06:58:07.842Z,59.20
2023-04-16T07:00:35.725Z,57.55
2023-04-16T07:03:03.911Z,70.47
2023-04-16T07:05:31.946Z,55.92
2023-04-16T07:08:00.113Z,70.88
2023-04-16T07:10:27.875Z,60.70
2023-04-16T07:12:55.701Z,67.50
2023-04-16T07:15:24.796Z,66.50
2023-04-16T07:17:52.661Z,71.18
2023-04-16T07:20:20.471Z,72.50
2023-04-16T07:22:48.245Z,68.57
2023-04-16T07:25:16.053Z,68.55
2023-04-16T07:27:43.867Z,51.00
2023-04-16T07:30:12.450Z,55.80
2023-04-16T07:32:41.608Z,64.88
2023-04-16T07:35:10.162Z,55.95
2023-04-16T07:37:38.009Z,62.55
2023-04-16T07:40:06.887Z,61.33
2023-04-16T07:42:34.650Z,61.90
2023-04-16T07:45:02.434Z,54.05
2023-04-16T07:47:30.470Z,62.22
2023-04-16T07:49:59.716Z,64.20
2023-04-16T07:52:27.774Z,58.50
2023-04-16T07:54:55.570Z,55.35
2023-04-16T07:57:23.429Z,55.00
2023-04-16T07:59:51.455Z,61.17
2023-04-16T08:02:19.495Z,45.20
2023-04-16T08:04:47.574Z,48.10
2023-04-16T08:07:16.818Z,57.65
2023-04-16T08:09:52.777Z,54.80
2023-04-16T08:12:21.224Z,60.70
2023-04-16T08:14:49.307Z,55.90
2023-04-16T08:17:17.519Z,52.75
2023-04-16T08:19:45.883Z,57.78
2023-04-16T08:22:13.969Z,60.65
2023-04-16T08:24:43.322Z,51.90
2023-04-16T08:27:18.321Z,50.25
2023-04-16T08:29:47.288Z,48.92
2023-04-16T08:32:15.314Z,59.83
2023-04-16T08:34:43.900Z,51.20
2023-04-16T08:37:11.781Z,49.72
2023-04-16T08:39:39.550Z,49.42
2023-04-16T08:42:15.227Z,51.40
2023-04-16T08:44:49.214Z,51.90
2023-04-16T08:47:17.359Z,53.63
2023-04-16T08:49:46.188Z,41.88
2023-04-16T08:52:19.541Z,46.30
2023-04-16T08:54:57.052Z,51.65
2023-04-16T08:57:31.770Z,38.53
2023-04-16T09:00:00.572Z,56.15
2023-04-16T09:02:29.688Z,46.58
2023-04-16T09:05:00.822Z,53.13
2023-04-16T09:07:30.252Z,64.70
2023-04-16T09:10:00.668Z,44.65
2023-04-16T09:12:31.844Z,46.47
2023-04-16T09:15:03.046Z,46.97
2023-04-16T09:17:31.055Z,61.05
2023-04-16T09:19:59.112Z,45.72
2023-04-16T09:22:26.873Z,53.55
2023-04-16T09:24:54.783Z,38.92
2023-04-16T09:27:25.371Z,46.78
2023-04-16T09:29:55.476Z,53.80
2023-04-16T09:32:27.430Z,54.08
2023-04-16T09:34:57.727Z,55.63
2023-04-16T09:37:26.360Z,47.70
2023-04-16T09:39:56.756Z,46.90
2023-04-16T09:42:29.083Z,41.63
2023-04-16T09:45:00.496Z,43.63
2023-04-16T09:47:41.027Z,52.45
2023-04-16T09:50:12.501Z,50.42
2023-04-16T09:52:40.883Z,48.85
2023-04-16T09:55:10.261Z,51.92
2023-04-16T09:57:39.473Z,46.58
2023-04-16T10:00:10.483Z,47.80
2023-04-16T10:02:42.020Z,50.33
2023-04-16T10:05:10.695Z,46.20
2023-04-16T10:07:39.055Z,46.67
2023-04-16T10:10:08.159Z,50.78
2023-04-16T10:12:35.909Z,43.17
2023-04-16T10:15:04.913Z,48.40
2023-04-16T10:17:34.720Z,46.10
2023-04-16T10:20:04.220Z,47.55
2023-04-16T10:22:32.251Z,47.13
2023-04-16T10:25:00.525Z,48.67
2023-04-16T10:27:29.130Z,44.75
2023-04-16T10:29:57.717Z,48.65
2023-04-16T10:32:28.768Z,45.55
2023-04-16T10:34:59.035Z,63.05
2023-04-16T10:37:31.221Z,47.92
2023-04-16T10:39:59.917Z,39.17
2023-04-16T10:42:27.762Z,50.15
2023-04-16T10:44:55.620Z,46.40
2023-04-16T10:47:27.218Z,49.90
2023-04-16T10:49:55.247Z,56.03
2023-04-16T10:52:25.468Z,42.63
2023-04-16T10:54:55.661Z,44.58
2023-04-16T10:57:23.507Z,44.00
2023-04-16T10:59:51.461Z,42.90
2023-04-16T11:02:20.452Z,53.83
2023-04-16T11:04:49.989Z,55.22
2023-04-16T11:07:20.738Z,53.38
2023-04-16T11:09:53.686Z,39.88
2023-04-16T11:12:23.152Z,54.25
2023-04-16T11:14:52.330Z,51.85
2023-04-16T11:17:20.798Z,43.40
2023-04-16T11:19:49.090Z,47.72
2023-04-16T11:22:18.816Z,52.00
2023-04-16T11:24:47.322Z,55.83
2023-04-16T11:27:17.027Z,48.85
2023-04-16T11:29:46.934Z,58.78
2023-04-16T11:32:22.532Z,50.85
2023-04-16T11:34:50.566Z,39.58
2023-04-16T11:37:21.995Z,48.40
2023-04-16T11:39:51.304Z,46.85
2023-04-16T11:42:24.119Z,47.30
2023-04-16T11:44:56.798Z,51.38
2023-04-16T11:47:25.762Z,37.15
2023-04-16T11:49:54.011Z,58.95
2023-04-16T11:52:28.864Z,37.50
2023-04-16T11:54:57.709Z,42.28
2023-04-16T11:57:28.177Z,47.20
2023-04-16T12:00:01.454Z,52.08
2023-04-16T12:02:42.037Z,45.70
2023-04-16T12:05:28.164Z,44.38
2023-04-16T12:07:56.545Z,48.25
2023-04-16T12:10:24.706Z,43.17
2023-04-16T12:12:54.179Z,48.42
2023-04-16T12:15:22.073Z,39.72
2023-04-16T12:17:50.645Z,43.30
2023-04-16T12:20:18.572Z,48.75
2023-04-16T12:22:48.347Z,45.95
2023-04-16T12:25:17.508Z,36.90
2023-04-16T12:27:47.775Z,35.90
2023-04-16T12:30:18.587Z,41.55
2023-04-16T12:32:52.634Z,41.20
2023-04-16T12:35:31.729Z,46.30
2023-04-16T12:37:59.925Z,45.47
2023-04-16T12:40:28.233Z,48.65
2023-04-16T12:42:56.243Z,52.40
2023-04-16T12:45:26.028Z,49.17
2023-04-16T12:47:53.898Z,44.05
2023-04-16T12:50:21.874Z,40.47
2023-04-16T12:52:50.015Z,42.17
2023-04-16T12:55:18.341Z,37.85
2023-04-16T12:57:48.922Z,65.00
2023-04-16T13:00:17.802Z,55.35
2023-04-16T13:02:47.868Z,41.20
2023-04-16T13:05:19.496Z,46.08
2023-04-16T13:07:47.714Z,48.33
2023-04-16T13:10:16.702Z,46.22
2023-04-16T13:12:46.513Z,40.15
2023-04-16T13:15:14.605Z,51.05
2023-04-16T13:17:42.519Z,43.17
2023-04-16T13:20:12.350Z,53.60
2023-04-16T13:22:40.347Z,43.28
2023-04-16T13:25:09.771Z,51.80
2023-04-16T13:27:37.618Z,47.10
2023-04-16T13:30:06.404Z,42.50
2023-04-16T13:32:34.258Z,55.95
2023-04-16T13:35:02.277Z,40.70
2023-04-16T13:37:31.653Z,46.35
2023-04-16T13:39:59.578Z,45.92
2023-04-16T13:42:28.381Z,39.53
2023-04-16T13:44:58.178Z,43.42
2023-04-16T13:47:26.442Z,40.38
2023-04-16T13:49:54.451Z,49.90
2023-04-16T13:52:22.391Z,49.85
2023-04-16T13:54:51.905Z,44.30
2023-04-16T13:57:22.759Z,43.42
2023-04-16T13:59:50.732Z,47.20
2023-04-16T14:02:18.687Z,41.72
2023-04-16T14:04:46.575Z,45.78
2023-04-16T14:07:15.529Z,38.55
2023-04-16T14:09:43.514Z,49.15
2023-04-16T14:12:12.960Z,44.58
2023-04-16T14:14:42.201Z,45.00
2023-04-16T14:17:10.053Z,40.17
2023-04-16T14:19:37.904Z,39.40
2023-04-16T14:22:08.721Z,37.95
2023-04-16T14:24:37.819Z,45.10
2023-04-16T14:27:05.937Z,34.05
2023-04-16T14:29:36.651Z,41.35
2023-04-16T14:32:05.318Z,33.85
2023-04-16T14:34:33.186Z,35.25
2023-04-16T14:37:01.130Z,40.78
2023-04-16T14:39:29.512Z,32.17
2023-04-16T14:41:57.582Z,35.72
2023-04-16T14:44:25.563Z,30.52
2023-04-16T14:46:55.460Z,42.17
2023-04-16T14:49:23.254Z,38.10
2023-04-16T14:51:52.451Z,36.97
2023-04-16T14:54:20.418Z,41.65
2023-04-16T14:56:48.486Z,39.97
2023-04-16T14:59:16.417Z,42.03
2023-04-16T15:01:44.357Z,37.97
2023-04-16T15:04:13.896Z,39.92
2023-04-16T15:06:42.046Z,38.13
2023-04-16T15:09:10.427Z,40.63
2023-04-16T15:11:38.679Z,39.17
2023-04-16T15:14:06.916Z,32.72
2023-04-16T15:16:34.810Z,42.42
2023-04-16T15:19:04.960Z,38.85
2023-04-16T15:21:34.589Z,44.28
2023-04-16T15:24:03.416Z,47.33
2023-04-16T15:26:31.385Z,41.75
2023-04-16T15:28:59.239Z,45.55
2023-04-16T15:31:27.270Z,47.72
2023-04-16T15:33:56.106Z,47.63
2023-04-16T15:36:24.130Z,42.90
2023-04-16T15:38:53.683Z,48.05
2023-04-16T15:41:21.730Z,45.58
2023-04-16T15:43:49.705Z,54.33
2023-04-16T15:46:17.692Z,44.45
2023-04-16T15:48:46.738Z,49.58
2023-04-16T15:51:14.734Z,43.88
2023-04-16T15:53:44.811Z,39.78
2023-04-16T15:56:14.218Z,40.85
2023-04-16T15:58:42.241Z,43.72
2023-04-16T16:01:10.218Z,47.53
2023-04-16T16:03:38.411Z,49.28
2023-04-16T16:06:08.485Z,49.20
2023-04-16T16:08:38.338Z,49.13
2023-04-16T16:11:06.296Z,48.63
2023-04-16T16:13:37.125Z,51.08
2023-04-16T16:16:05.606Z,44.35
2023-04-16T16:18:33.458Z,42.03
2023-04-16T16:21:01.475Z,43.03
2023-04-16T16:23:29.442Z,36.08
2023-04-16T16:25:57.599Z,32.97
2023-04-16T16:28:25.554Z,33.63
2023-04-16T16:30:55.819Z,36.67
2023-04-16T16:33:23.657Z,32.75
2023-04-16T16:35:51.407Z,30.90
2023-04-16T16:38:19.197Z,38.20
2023-04-16T16:40:46.965Z,38.90
2023-04-16T16:43:14.852Z,35.15
2023-04-16T16:45:42.610Z,35.72
2023-04-16T16:48:11.827Z,36.47
2023-04-16T16:50:39.698Z,37.40
2023-04-16T16:53:07.751Z,37.95
2023-04-16T16:55:36.136Z,34.63
2023-04-16T16:58:04.689Z,37.58
2023-04-16T17:00:32.771Z,36.53
2023-04-16T17:03:01.218Z,36.40
2023-04-16T17:05:30.658Z,34.50
2023-04-16T17:07:58.482Z,36.97
2023-04-16T17:10:26.508Z,38.50
2023-04-16T17:12:55.733Z,38.97
2023-04-16T17:15:23.953Z,35.00
2023-04-16T17:17:51.867Z,34.75
2023-04-16T17:20:19.950Z,35.17
2023-04-16T17:22:49.280Z,34.25
2023-04-16T17:25:17.307Z,35.03
2023-04-16T17:27:45.049Z,27.63
2023-04-16T17:30:13.285Z,35.75
2023-04-16T17:32:41.256Z,36.47
2023-04-16T17:35:10.385Z,44.10
2023-04-16T17:37:39.080Z,39.05
2023-04-16T17:40:10.239Z,32.20
2023-04-16T17:42:38.644Z,35.53
2023-04-16T17:45:07.724Z,39.35
2023-04-16T17:47:36.244Z,38.17
2023-04-16T17:50:04.731Z,38.45
2023-04-16T17:52:32.639Z,36.53
2023-04-16T17:55:01.755Z,39.67
2023-04-16T17:57:31.568Z,33.65
2023-04-16T17:59:59.488Z,32.22
2023-04-16T18:02:27.570Z,37.10
2023-04-16T18:04:55.724Z,33.60
2023-04-16T18:07:24.046Z,31.48
2023-04-16T18:09:52.150Z,27.90
2023-04-16T18:12:20.152Z,29.73
2023-04-16T18:14:49.578Z,28.80
2023-04-16T18:17:17.799Z,29.73
2023-04-16T18:19:45.703Z,28.85
2023-04-16T18:22:13.715Z,28.08
2023-04-16T18:24:41.630Z,28.70
2023-04-16T18:27:09.686Z,28.40
2023-04-16T18:29:39.977Z,30.67
2023-04-16T18:32:11.994Z,26.48
2023-04-16T18:34:40.607Z,30.42
2023-04-16T18:37:08.836Z,26.13
2023-04-16T18:39:37.041Z,31.05
2023-04-16T18:42:05.238Z,32.95
2023-04-16T18:44:33.162Z,31.92
2023-04-16T18:47:01.038Z,34.00
2023-04-16T18:49:30.658Z,28.80
2023-04-16T18:51:58.393Z,30.48
2023-04-16T18:54:28.043Z,28.15
2023-04-16T18:56:57.318Z,32.30
2023-04-16T18:59:25.960Z,31.80
2023-04-16T19:01:54.065Z,28.25
2023-04-16T19:04:22.022Z,23.73
2023-04-16T19:06:51.374Z,27.77
2023-04-16T19:09:19.895Z,27.42
2023-04-16T19:11:50.602Z,25.45
2023-04-16T19:14:18.546Z,27.45
2023-04-16T19:16:46.489Z,24.67
2023-04-16T19:19:14.471Z,29.40
2023-04-16T19:21:42.362Z,29.40
2023-04-16T19:24:11.571Z,24.75
2023-04-16T19:26:39.500Z,29.30
2023-04-16T19:29:07.324Z,29.65
2023-04-16T19:31:35.132Z,29.38
2023-04-16T19:34:04.193Z,28.35
2023-04-16T19:36:32.434Z,30.15
2023-04-16T19:39:00.172Z,31.73
2023-04-16T19:41:29.281Z,30.75
2023-04-16T19:43:57.914Z,32.17
2023-04-16T19:46:25.931Z,29.88
2023-04-16T19:48:53.772Z,28.75
2023-04-16T19:51:21.598Z,27.75
2023-04-16T19:53:49.573Z,30.52
2023-04-16T19:56:17.597Z,31.77
2023-04-16T19:58:46.807Z,32.03
2023-04-16T20:01:14.599Z,31.17
2023-04-16T20:03:42.728Z,29.42
2023-04-16T20:06:10.609Z,29.15
2023-04-16T20:08:38.747Z,31.25
2023-04-16T20:11:08.455Z,31.15
2023-04-16T20:13:37.721Z,29.67
2023-04-16T20:16:08.508Z,32.55
2023-04-16T20:18:41.205Z,35.70
2023-04-16T20:21:09.382Z,38.87
2023-04-16T20:23:37.307Z,34.45
2023-04-16T20:26:05.492Z,40.63
2023-04-16T20:28:33.204Z,39.97
2023-04-16T20:31:01.121Z,41.53
2023-04-16T20:33:30.379Z,44.35
2023-04-16T20:35:58.352Z,46.55
2023-04-16T20:38:26.122Z,43.70
2023-04-16T20:41:06.391Z,47.10
2023-04-16T20:43:38.349Z,50.90
2023-04-16T20:46:06.238Z,51.67
2023-04-16T20:48:36.085Z,46.33
2023-04-16T20:51:05.298Z,42.20
2023-04-16T20:53:33.824Z,39.42
2023-04-16T20:56:01.744Z,42.60
2023-04-16T20:58:30.125Z,44.95
2023-04-16T21:00:58.567Z,41.58
2023-04-16T21:03:26.547Z,38.88
2023-04-16T21:05:56.716Z,33.55
2023-04-16T21:08:24.987Z,32.42
2023-04-16T21:10:52.818Z,37.92
2023-04-16T21:13:21.799Z,38.25
2023-04-16T21:15:49.599Z,33.80
2023-04-16T21:18:18.559Z,33.60
2023-04-16T21:20:46.388Z,30.60
2023-04-16T21:23:15.594Z,34.58
2023-04-16T21:25:43.405Z,34.47
2023-04-16T21:28:11.219Z,31.60
2023-04-16T21:30:39.451Z,30.65
2023-04-16T21:33:07.829Z,31.17
2023-04-16T21:35:35.859Z,29.70
2023-04-16T21:38:03.892Z,32.45
2023-04-16T21:40:33.155Z,34.47
2023-04-16T21:43:01.112Z,29.83
2023-04-16T21:45:30.523Z,29.50
2023-04-16T21:47:58.503Z,31.98
2023-04-16T21:50:26.401Z,28.98
2023-04-16T21:52:54.823Z,31.75
2023-04-16T21:55:22.637Z,29.73
2023-04-16T21:57:51.741Z,32.40
2023-04-16T22:00:21.124Z,34.45
2023-04-16T22:02:49.211Z,39.35
2023-04-16T22:05:17.567Z,34.78
2023-04-16T22:07:45.319Z,40.08
2023-04-16T22:10:15.159Z,37.55
2023-04-16T22:12:44.859Z,36.05
2023-04-16T22:15:14.767Z,39.85
2023-04-16T22:17:42.727Z,43.25
2023-04-16T22:20:12.745Z,38.10
2023-04-16T22:22:40.615Z,37.78
2023-04-16T22:25:09.167Z,38.78
2023-04-16T22:27:37.240Z,42.45
2023-04-16T22:30:06.052Z,39.70
2023-04-16T22:32:35.405Z,41.70
2023-04-16T22:35:03.396Z,37.65
2023-04-16T22:37:31.296Z,35.70
2023-04-16T22:39:59.044Z,41.28
2023-04-16T22:42:27.048Z,43.05
2023-04-16T22:44:54.815Z,36.42
2023-04-16T22:47:22.651Z,36.78
2023-04-16T22:49:51.890Z,42.22
2023-04-16T22:52:19.604Z,38.15
2023-04-16T22:54:47.424Z,43.63
2023-04-16T22:57:17.332Z,40.60
2023-04-16T22:59:45.074Z,42.88
2023-04-16T23:02:12.819Z,37.85
2023-04-16T23:04:40.690Z,43.97
2023-04-16T23:07:10.122Z,41.97
2023-04-16T23:09:37.906Z,43.78
2023-04-16T23:12:06.191Z,41.42
2023-04-16T23:14:34.497Z,44.03
2023-04-16T23:17:02.497Z,43.72
2023-04-16T23:19:31.189Z,40.55
2023-04-16T23:21:59.091Z,36.13
2023-04-16T23:24:28.288Z,44.70
2023-04-16T23:26:56.050Z,38.72
2023-04-16T23:29:24.077Z,42.97
2023-04-16T23:31:52.187Z,42.15
2023-04-16T23:34:20.051Z,43.00
2023-04-16T23:36:47.898Z,43.83
2023-04-16T23:39:15.793Z,44.17
2023-04-16T23:41:44.897Z,41.95
2023-04-16T23:44:12.662Z,41.97
2023-04-16T23:46:41.077Z,43.40
2023-04-16T23:49:09.072Z,36.90
2023-04-16T23:51:36.950Z,37.03
2023-04-16T23:54:04.951Z,37.10
2023-04-16T23:56:32.668Z,40.92
2023-04-16T23:59:01.794Z,40.13
